createdAt,value
2019-03-12T00:08:58.807Z,970.3
2019-03-12T00:19:02.251Z,970.6
2019-03-12T00:29:05.694Z,970.6
2019-03-12T00:39:09.144Z,970.4
2019-03-12T00:49:12.606Z,970.9
2019-03-12T00:59:16.046Z,970.5
2019-03-12T01:09:20.506Z,970.5
2019-03-12T01:19:23.957Z,970.6
2019-03-12T01:29:27.353Z,970.8
2019-03-12T01:39:30.804Z,970.8
2019-03-12T01:49:34.225Z,970.9
2019-03-12T01:59:37.657Z,971.1
2019-03-12T02:09:41.076Z,971
2019-03-12T02:19:44.531Z,970.8
2019-03-12T02:29:47.947Z,971
2019-03-12T02:39:51.360Z,971.6
2019-03-12T02:49:54.820Z,973.1
2019-03-12T02:59:58.301Z,972.6
2019-03-12T03:10:01.782Z,971.5
2019-03-12T03:20:05.275Z,971.8
2019-03-12T03:30:08.758Z,971.5
2019-03-12T03:40:12.195Z,971.4
2019-03-12T03:50:15.647Z,971.4
2019-03-12T04:00:19.129Z,971.4
2019-03-12T04:10:22.606Z,971.4
2019-03-12T04:20:26.140Z,971.4
2019-03-12T04:30:29.694Z,971.3
2019-03-12T04:40:33.177Z,971.3
2019-03-12T04:50:36.624Z,971.3
2019-03-12T05:00:40.066Z,971.1
2019-03-12T05:10:43.491Z,971.2
2019-03-12T05:20:46.879Z,971.1
2019-03-12T05:30:50.337Z,970.8
2019-03-12T05:40:53.882Z,970.9
2019-03-12T05:50:57.340Z,971
2019-03-12T06:01:00.781Z,970.9
2019-03-12T06:11:04.235Z,971
2019-03-12T06:21:07.699Z,970.1
2019-03-12T06:31:11.140Z,976.1
2019-03-12T06:41:14.598Z,974.3
2019-03-12T06:51:18.063Z,972.8
2019-03-12T07:01:21.522Z,971.4
2019-03-12T07:11:24.969Z,970.4
2019-03-12T07:21:28.394Z,969.2
2019-03-12T07:31:31.818Z,976.1
2019-03-12T07:41:35.259Z,975.5
2019-03-12T07:51:38.707Z,974.4
2019-03-12T08:01:42.128Z,973.8
2019-03-12T08:11:45.572Z,973.4
2019-03-12T08:21:50.511Z,971.7
2019-03-12T08:31:53.927Z,970.8
2019-03-12T08:41:57.351Z,970
2019-03-12T08:52:00.770Z,969.6
2019-03-12T09:02:04.158Z,970.5
2019-03-12T09:12:07.569Z,970.7
2019-03-12T09:22:10.965Z,970.8
2019-03-12T09:32:14.454Z,970.4
2019-03-12T09:42:17.873Z,970.7
2019-03-12T09:52:21.317Z,971.1
2019-03-12T10:02:25.722Z,971.1
2019-03-12T10:12:29.163Z,970.5
2019-03-12T10:22:32.592Z,970.5
2019-03-12T10:32:36.007Z,971.1
2019-03-12T10:42:39.421Z,970.6
2019-03-12T10:52:42.940Z,970.3
2019-03-12T11:02:46.386Z,971.1
2019-03-12T11:12:49.817Z,971.3
2019-03-12T11:22:53.338Z,970.5
2019-03-12T11:32:56.756Z,970.6
2019-03-12T11:43:00.213Z,970.7
2019-03-12T11:53:04.723Z,970.4
2019-03-12T12:03:08.195Z,969.4
2019-03-12T12:13:11.603Z,969
2019-03-12T12:23:15.018Z,968.5
2019-03-12T12:33:18.428Z,968
2019-03-12T12:43:22.160Z,968.2
2019-03-12T12:53:25.609Z,968.6
2019-03-12T13:03:29.041Z,968.4
2019-03-12T13:13:32.460Z,969
2019-03-12T13:23:36.607Z,968.5
2019-03-12T13:33:40.043Z,968.7
2019-03-12T13:43:43.500Z,968.5
2019-03-12T13:53:46.980Z,968.3
2019-03-12T14:03:50.414Z,967.9
2019-03-12T14:13:53.851Z,968
2019-03-12T14:23:57.311Z,967.7
2019-03-12T14:34:00.765Z,967.5
2019-03-12T14:44:04.177Z,967.1
2019-03-12T14:54:07.601Z,959.5
2019-03-12T15:04:11.030Z,966.6
2019-03-12T15:14:14.482Z,959
2019-03-12T15:24:17.955Z,965.9
2019-03-12T15:34:21.417Z,965.8
2019-03-12T15:44:24.873Z,958.6
2019-03-12T15:54:28.328Z,958.7
2019-03-12T16:04:31.802Z,958.2
2019-03-12T16:14:35.243Z,958.1
2019-03-12T16:24:38.708Z,958
2019-03-12T16:34:42.241Z,957.7
2019-03-12T16:44:45.662Z,957.6
2019-03-12T16:54:51.890Z,957.6
2019-03-12T17:04:56.345Z,957.6
2019-03-12T17:14:59.790Z,957.8
2019-03-12T17:25:03.215Z,957.6
2019-03-12T17:35:06.648Z,957.7
2019-03-12T17:45:10.103Z,957.6
2019-03-12T17:55:13.542Z,957.5
2019-03-12T18:05:16.993Z,957.7
2019-03-12T18:15:20.614Z,957.2
2019-03-12T18:25:24.061Z,957
2019-03-12T18:35:27.505Z,957.1
2019-03-12T18:45:30.948Z,957
2019-03-12T18:55:38.866Z,957.2
2019-03-12T19:05:42.338Z,956.9
2019-03-12T19:15:45.784Z,956.9
2019-03-12T19:25:49.189Z,956.7
2019-03-12T19:35:52.614Z,956.7
2019-03-12T19:45:56.082Z,956.6
2019-03-12T19:55:59.510Z,956.7
2019-03-12T20:06:03.016Z,956.5
2019-03-12T20:16:06.435Z,956.2
2019-03-12T20:26:09.874Z,956.1
2019-03-12T20:36:13.345Z,956.1
2019-03-12T20:46:16.788Z,956.2
2019-03-12T20:56:20.210Z,956
2019-03-12T21:06:23.627Z,955.9
2019-03-12T21:16:27.082Z,956
2019-03-12T21:26:30.542Z,955.8
2019-03-12T21:36:33.987Z,955.8
2019-03-12T21:46:37.473Z,955.8
2019-03-12T21:56:40.916Z,955.6
2019-03-12T22:06:44.328Z,955.1
2019-03-12T22:16:47.761Z,955.1
2019-03-12T22:26:51.201Z,954.8
2019-03-12T22:36:54.635Z,954.5
2019-03-12T22:46:58.036Z,954.5
2019-03-12T22:57:01.524Z,954.3
2019-03-12T23:07:04.961Z,954.1
2019-03-12T23:17:08.427Z,954.1
2019-03-12T23:27:11.855Z,953.8
2019-03-12T23:37:15.313Z,953.7
2019-03-12T23:47:18.777Z,954
2019-03-12T23:57:22.218Z,954.4
